createdAt,value
2023-03-20T00:00:41.202Z,23.77
2023-03-20T00:03:16.682Z,24.40
2023-03-20T00:05:47.188Z,22.57
2023-03-20T00:08:19.849Z,18.03
2023-03-20T00:10:50.726Z,21.47
2023-03-20T00:13:28.753Z,22.80
2023-03-20T00:16:05.709Z,21.20
2023-03-20T00:18:39.466Z,20.33
2023-03-20T00:21:14.922Z,25.00
2023-03-20T00:23:44.557Z,19.33
2023-03-20T00:26:14.351Z,26.17
2023-03-20T00:28:45.765Z,18.37
2023-03-20T00:31:30.839Z,19.40
2023-03-20T00:34:10.282Z,19.33
2023-03-20T00:36:47.803Z,21.30
2023-03-20T00:39:25.570Z,18.50
2023-03-20T00:41:57.376Z,20.70
2023-03-20T00:44:28.024Z,20.23
2023-03-20T00:47:13.577Z,18.90
2023-03-20T00:49:45.783Z,22.47
2023-03-20T00:52:23.004Z,29.07
2023-03-20T00:54:54.082Z,19.73
2023-03-20T00:57:25.643Z,20.20
2023-03-20T00:59:58.203Z,22.93
2023-03-20T01:02:34.764Z,20.00
2023-03-20T01:05:06.739Z,22.27
2023-03-20T01:07:37.948Z,23.00
2023-03-20T01:10:08.504Z,21.13
2023-03-20T01:12:37.708Z,22.90
2023-03-20T01:15:25.327Z,21.97
2023-03-20T01:17:56.074Z,23.00
2023-03-20T01:20:27.194Z,26.63
2023-03-20T01:22:57.552Z,25.60
2023-03-20T01:25:31.138Z,22.63
2023-03-20T01:28:00.116Z,23.60
2023-03-20T01:30:36.554Z,22.20
2023-03-20T01:33:26.508Z,22.00
2023-03-20T01:35:59.537Z,21.73
2023-03-20T01:38:36.885Z,25.30
2023-03-20T01:41:16.734Z,21.47
2023-03-20T01:43:53.440Z,21.27
2023-03-20T01:46:31.506Z,24.40
2023-03-20T01:49:48.577Z,21.30
2023-03-20T01:52:27.731Z,18.40
2023-03-20T01:54:56.145Z,20.00
2023-03-20T01:57:29.617Z,22.80
2023-03-20T02:00:05.866Z,24.50
2023-03-20T02:03:05.458Z,20.07
2023-03-20T02:05:55.283Z,22.63
2023-03-20T02:09:10.660Z,22.60
2023-03-20T02:11:52.215Z,21.23
2023-03-20T02:14:24.151Z,23.83
2023-03-20T02:17:13.544Z,23.13
2023-03-20T02:20:02.228Z,21.50
2023-03-20T02:23:07.118Z,23.60
2023-03-20T02:26:28.819Z,24.23
2023-03-20T02:29:23.573Z,26.37
2023-03-20T02:32:27.549Z,26.00
2023-03-20T02:35:48.628Z,19.03
2023-03-20T02:38:54.376Z,25.47
2023-03-20T02:41:28.204Z,20.73
2023-03-20T02:44:05.104Z,21.13
2023-03-20T02:46:40.479Z,18.33
2023-03-20T02:49:26.080Z,26.70
2023-03-20T02:52:04.841Z,23.97
2023-03-20T02:54:57.919Z,26.47
2023-03-20T02:57:38.193Z,21.97
2023-03-20T03:00:17.691Z,25.03
2023-03-20T03:02:50.291Z,21.97
2023-03-20T03:05:25.410Z,23.50
2023-03-20T03:07:57.693Z,22.43
2023-03-20T03:10:33.600Z,26.87
2023-03-20T03:13:13.665Z,23.27
2023-03-20T03:15:52.289Z,22.10
2023-03-20T03:18:25.500Z,23.23
2023-03-20T03:21:00.274Z,24.93
2023-03-20T03:23:33.744Z,21.00
2023-03-20T03:26:11.017Z,23.90
2023-03-20T03:28:41.976Z,23.40
2023-03-20T03:31:14.357Z,20.40
2023-03-20T03:33:50.482Z,26.83
2023-03-20T03:36:29.693Z,26.80
2023-03-20T03:39:05.545Z,22.20
2023-03-20T03:41:44.198Z,23.03
2023-03-20T03:44:19.707Z,21.20
2023-03-20T03:46:55.017Z,20.70
2023-03-20T03:49:29.000Z,23.27
2023-03-20T03:52:03.718Z,23.60
2023-03-20T03:54:39.167Z,21.30
2023-03-20T03:57:38.523Z,24.80
2023-03-20T04:00:14.548Z,22.80
2023-03-20T04:02:46.410Z,27.87
2023-03-20T04:05:15.466Z,24.93
2023-03-20T04:07:48.232Z,22.90
2023-03-20T04:10:22.668Z,23.97
2023-03-20T04:12:55.308Z,25.33
2023-03-20T04:15:27.708Z,22.67
2023-03-20T04:18:05.714Z,24.03
2023-03-20T04:20:41.203Z,22.90
2023-03-20T04:23:09.290Z,24.03
2023-03-20T04:25:39.242Z,26.93
2023-03-20T04:28:14.518Z,22.67
2023-03-20T04:30:58.333Z,21.50
2023-03-20T04:34:00.356Z,24.80
2023-03-20T04:36:58.435Z,24.70
2023-03-20T04:39:45.617Z,25.97
2023-03-20T04:42:15.011Z,24.70
2023-03-20T04:44:48.802Z,23.83
2023-03-20T04:47:20.148Z,25.73
2023-03-20T04:49:49.286Z,24.30
2023-03-20T04:52:21.308Z,30.57
2023-03-20T04:54:53.402Z,25.23
2023-03-20T04:57:23.087Z,23.40
2023-03-20T05:00:08.327Z,21.63
2023-03-20T05:02:37.414Z,28.40
2023-03-20T05:05:12.113Z,26.83
2023-03-20T05:07:41.382Z,24.73
2023-03-20T05:10:21.733Z,26.47
2023-03-20T05:13:15.619Z,28.63
2023-03-20T05:16:06.071Z,28.93
2023-03-20T05:18:55.501Z,28.97
2023-03-20T05:21:48.453Z,23.30
2023-03-20T05:24:33.095Z,28.63
2023-03-20T05:27:25.007Z,30.13
2023-03-20T05:30:14.682Z,26.73
2023-03-20T05:32:55.445Z,28.70
2023-03-20T05:35:42.401Z,26.10
2023-03-20T05:38:23.975Z,30.40
2023-03-20T05:41:16.400Z,29.50
2023-03-20T05:44:12.670Z,25.33
2023-03-20T05:47:10.619Z,28.57
2023-03-20T05:50:33.477Z,29.57
2023-03-20T05:53:21.389Z,30.40
2023-03-20T05:56:20.061Z,26.27
2023-03-20T05:59:13.443Z,25.73
2023-03-20T06:02:12.833Z,29.70
2023-03-20T06:04:58.486Z,36.47
2023-03-20T06:07:51.669Z,31.53
2023-03-20T06:10:23.437Z,29.17
2023-03-20T06:13:01.330Z,41.83
2023-03-20T06:15:32.674Z,51.77
2023-03-20T06:18:15.120Z,76.00
2023-03-20T06:20:44.672Z,74.40
2023-03-20T06:23:16.929Z,59.73
2023-03-20T06:25:53.537Z,57.33
2023-03-20T06:28:23.668Z,62.60
2023-03-20T06:31:04.023Z,61.40
2023-03-20T06:33:32.517Z,58.47
2023-03-20T06:36:11.156Z,56.27
2023-03-20T06:38:44.303Z,53.70
2023-03-20T06:41:31.894Z,57.93
2023-03-20T06:44:07.752Z,53.40
2023-03-20T06:47:08.079Z,47.43
2023-03-20T06:49:36.822Z,34.87
2023-03-20T06:52:16.547Z,33.67
2023-03-20T06:55:06.326Z,31.80
2023-03-20T06:57:35.652Z,32.47
2023-03-20T07:00:13.315Z,24.70
2023-03-20T07:02:46.477Z,32.30
2023-03-20T07:05:26.540Z,29.67
2023-03-20T07:07:59.873Z,27.20
2023-03-20T07:10:35.219Z,28.63
2023-03-20T07:13:09.452Z,31.47
2023-03-20T07:15:53.886Z,30.23
2023-03-20T07:18:36.371Z,23.63
2023-03-20T07:21:08.994Z,25.33
2023-03-20T07:23:39.065Z,27.70
2023-03-20T07:26:15.312Z,30.30
2023-03-20T07:28:45.126Z,21.33
2023-03-20T07:31:35.975Z,22.40
2023-03-20T07:34:26.679Z,23.10
2023-03-20T07:37:06.900Z,25.97
2023-03-20T07:39:41.858Z,22.37
2023-03-20T07:42:39.262Z,22.40
2023-03-20T07:45:16.929Z,17.10
2023-03-20T07:47:49.544Z,22.67
2023-03-20T07:50:20.167Z,16.43
2023-03-20T07:52:51.872Z,23.30
2023-03-20T07:55:34.399Z,19.90
2023-03-20T07:58:18.029Z,18.50
2023-03-20T08:00:48.971Z,22.13
2023-03-20T08:03:19.395Z,16.47
2023-03-20T08:05:53.481Z,16.30
2023-03-20T08:08:23.890Z,15.47
2023-03-20T08:10:55.666Z,17.43
2023-03-20T08:13:26.408Z,14.60
2023-03-20T08:15:58.324Z,17.33
2023-03-20T08:18:28.824Z,16.67
2023-03-20T08:21:10.066Z,18.07
2023-03-20T08:23:41.130Z,16.80
2023-03-20T08:26:13.026Z,13.90
2023-03-20T08:28:52.617Z,15.67
2023-03-20T08:31:24.889Z,15.10
2023-03-20T08:34:05.881Z,12.93
2023-03-20T08:36:35.532Z,14.43
2023-03-20T08:39:04.776Z,14.27
2023-03-20T08:41:36.915Z,16.83
2023-03-20T08:44:07.383Z,14.77
2023-03-20T08:46:40.151Z,13.50
2023-03-20T08:49:11.237Z,12.13
2023-03-20T08:51:43.398Z,16.53
2023-03-20T08:54:11.721Z,13.13
2023-03-20T08:56:40.931Z,11.20
2023-03-20T08:59:11.385Z,13.83
2023-03-20T09:01:50.176Z,12.90
2023-03-20T09:04:22.212Z,15.30
2023-03-20T09:06:53.843Z,13.50
2023-03-20T09:09:30.012Z,13.37
2023-03-20T09:12:10.624Z,13.10
2023-03-20T09:14:43.949Z,11.10
2023-03-20T09:17:13.514Z,10.90
2023-03-20T09:19:44.763Z,12.70
2023-03-20T09:22:14.622Z,10.87
2023-03-20T09:24:44.864Z,13.47
2023-03-20T09:27:16.862Z,13.70
2023-03-20T09:29:57.830Z,9.10
2023-03-20T09:32:32.200Z,6.80
2023-03-20T09:35:00.330Z,6.53
2023-03-20T09:37:29.684Z,7.87
2023-03-20T09:39:58.741Z,5.83
2023-03-20T09:42:43.330Z,4.90
2023-03-20T09:45:26.118Z,6.93
2023-03-20T09:48:05.045Z,5.07
2023-03-20T09:50:40.952Z,5.03
2023-03-20T09:53:16.720Z,6.77
2023-03-20T09:55:49.812Z,6.33
2023-03-20T09:58:24.595Z,4.37
2023-03-20T10:00:58.252Z,6.10
2023-03-20T10:03:38.832Z,6.73
2023-03-20T10:06:11.369Z,4.47
2023-03-20T10:08:45.188Z,6.47
2023-03-20T10:11:29.006Z,5.33
2023-03-20T10:14:11.756Z,3.97
2023-03-20T10:17:06.462Z,4.83
2023-03-20T10:19:48.018Z,10.00
2023-03-20T10:22:27.373Z,5.10
2023-03-20T10:24:58.591Z,5.07
2023-03-20T10:27:30.243Z,3.20
2023-03-20T10:30:20.289Z,3.80
2023-03-20T10:33:02.868Z,3.43
2023-03-20T10:35:43.559Z,5.03
2023-03-20T10:38:27.155Z,4.33
2023-03-20T10:40:57.985Z,6.33
2023-03-20T10:43:43.034Z,7.80
2023-03-20T10:46:14.641Z,6.27
2023-03-20T10:48:47.843Z,7.90
2023-03-20T10:51:31.417Z,4.97
2023-03-20T10:54:03.362Z,5.47
2023-03-20T10:56:36.469Z,4.33
2023-03-20T10:59:09.355Z,4.50
2023-03-20T11:01:38.568Z,10.97
2023-03-20T11:04:09.484Z,6.80
2023-03-20T11:06:47.264Z,7.53
2023-03-20T11:09:23.088Z,7.90
2023-03-20T11:12:07.548Z,7.53
2023-03-20T11:14:39.597Z,6.33
2023-03-20T11:17:09.454Z,5.03
2023-03-20T11:19:43.369Z,6.20
2023-03-20T11:22:27.116Z,5.60
2023-03-20T11:25:01.380Z,9.70
2023-03-20T11:27:34.967Z,6.60
2023-03-20T11:30:09.337Z,4.90
2023-03-20T11:32:45.283Z,6.00
2023-03-20T11:35:39.034Z,4.20
2023-03-20T11:38:15.976Z,9.23
2023-03-20T11:40:52.822Z,5.43
2023-03-20T11:43:26.669Z,7.03
2023-03-20T11:46:05.268Z,7.00
2023-03-20T11:48:43.041Z,4.33
2023-03-20T11:51:24.482Z,6.50
2023-03-20T11:54:04.597Z,6.77
2023-03-20T11:56:38.183Z,5.40
2023-03-20T11:59:19.359Z,6.10
2023-03-20T12:01:53.186Z,7.10
2023-03-20T12:04:31.223Z,6.10
2023-03-20T12:07:04.711Z,6.07
2023-03-20T12:09:59.798Z,6.37
2023-03-20T12:12:41.097Z,5.53
2023-03-20T12:15:22.293Z,7.57
2023-03-20T12:17:55.980Z,7.17
2023-03-20T12:20:41.735Z,7.27
2023-03-20T12:23:28.016Z,8.00
2023-03-20T12:26:04.244Z,10.23
2023-03-20T12:28:39.683Z,8.90
2023-03-20T12:31:29.983Z,8.70
2023-03-20T12:34:05.801Z,9.43
2023-03-20T12:36:39.186Z,5.60
2023-03-20T12:39:14.213Z,5.50
2023-03-20T12:42:06.977Z,5.80
2023-03-20T12:44:43.070Z,6.53
2023-03-20T12:47:28.440Z,7.67
2023-03-20T12:50:05.576Z,7.93
2023-03-20T12:52:45.933Z,4.93
2023-03-20T12:55:37.201Z,7.60
2023-03-20T12:58:21.403Z,9.07
2023-03-20T13:00:56.687Z,5.60
2023-03-20T13:04:02.803Z,4.83
2023-03-20T13:06:39.885Z,6.80
2023-03-20T13:09:31.837Z,4.23
2023-03-20T13:12:10.329Z,4.97
2023-03-20T13:14:47.143Z,4.80
2023-03-20T13:17:23.111Z,5.73
2023-03-20T13:20:06.654Z,3.87
2023-03-20T13:22:43.517Z,5.50
2023-03-20T13:25:26.664Z,5.00
2023-03-20T13:28:09.925Z,4.13
2023-03-20T13:30:48.104Z,4.27
2023-03-20T13:33:27.722Z,3.60
2023-03-20T13:36:07.563Z,4.10
2023-03-20T13:38:42.413Z,4.43
2023-03-20T13:41:12.548Z,6.10
2023-03-20T13:43:48.609Z,3.90
2023-03-20T13:46:25.472Z,7.30
2023-03-20T13:49:02.149Z,9.33
2023-03-20T13:51:37.269Z,4.03
2023-03-20T13:54:22.917Z,3.40
2023-03-20T13:56:56.042Z,6.43
2023-03-20T13:59:58.897Z,6.80
2023-03-20T14:03:20.000Z,6.60
2023-03-20T14:05:54.244Z,4.37
2023-03-20T14:08:32.593Z,5.40
2023-03-20T14:11:37.756Z,5.57
2023-03-20T14:14:14.644Z,4.03
2023-03-20T14:16:43.511Z,4.50
2023-03-20T14:19:24.230Z,4.30
2023-03-20T14:21:55.924Z,9.23
2023-03-20T14:24:25.575Z,4.13
2023-03-20T14:26:57.929Z,4.70
2023-03-20T14:29:36.777Z,4.97
2023-03-20T14:32:25.876Z,5.57
2023-03-20T14:35:04.624Z,6.57
2023-03-20T14:37:39.756Z,4.87
2023-03-20T14:40:17.630Z,8.37
2023-03-20T14:42:55.835Z,11.40
2023-03-20T14:45:44.304Z,6.37
2023-03-20T14:48:27.917Z,5.53
2023-03-20T14:51:18.985Z,8.20
2023-03-20T14:54:02.263Z,8.03
2023-03-20T14:56:44.375Z,6.00
2023-03-20T14:59:21.247Z,6.57
2023-03-20T15:02:00.100Z,4.93
2023-03-20T15:04:53.924Z,4.83
2023-03-20T15:07:47.993Z,8.03
2023-03-20T15:10:19.061Z,5.97
2023-03-20T15:12:49.913Z,4.30
2023-03-20T15:15:28.169Z,4.93
2023-03-20T15:17:57.922Z,9.63
2023-03-20T15:20:32.765Z,5.07
2023-03-20T15:23:21.274Z,5.60
2023-03-20T15:25:58.478Z,4.27
2023-03-20T15:28:30.874Z,4.57
2023-03-20T15:31:01.397Z,10.00
2023-03-20T15:33:34.015Z,5.10
2023-03-20T15:36:09.384Z,4.57
2023-03-20T15:38:52.417Z,5.00
2023-03-20T15:41:34.434Z,3.97
2023-03-20T15:44:22.937Z,4.83
2023-03-20T15:47:00.141Z,5.90
2023-03-20T15:49:32.956Z,5.40
2023-03-20T15:52:07.163Z,4.23
2023-03-20T15:54:39.547Z,3.17
2023-03-20T15:57:09.002Z,3.83
2023-03-20T15:59:42.334Z,4.67
2023-03-20T16:02:15.935Z,4.27
2023-03-20T16:04:48.200Z,3.47
2023-03-20T16:07:25.628Z,3.93
2023-03-20T16:10:35.040Z,3.37
2023-03-20T16:13:06.693Z,7.27
2023-03-20T16:15:38.510Z,9.00
2023-03-20T16:18:12.638Z,3.70
2023-03-20T16:20:46.506Z,5.20
2023-03-20T16:23:22.283Z,4.07
2023-03-20T16:25:58.732Z,3.70
2023-03-20T16:28:31.023Z,4.40
2023-03-20T16:31:15.675Z,5.23
2023-03-20T16:33:48.476Z,9.23
2023-03-20T16:36:29.932Z,7.77
2023-03-20T16:39:07.290Z,5.30
2023-03-20T16:41:53.293Z,4.17
2023-03-20T16:44:29.426Z,7.17
2023-03-20T16:47:01.506Z,4.70
2023-03-20T16:50:17.162Z,4.70
2023-03-20T16:52:56.953Z,9.93
2023-03-20T16:55:29.380Z,4.57
2023-03-20T16:58:06.593Z,4.80
2023-03-20T17:00:45.646Z,4.97
2023-03-20T17:03:20.753Z,4.80
2023-03-20T17:05:58.051Z,4.90
2023-03-20T17:08:47.549Z,4.97
2023-03-20T17:11:33.280Z,5.50
2023-03-20T17:14:08.885Z,5.10
2023-03-20T17:16:48.946Z,5.93
2023-03-20T17:19:20.841Z,8.43
2023-03-20T17:21:54.619Z,5.97
2023-03-20T17:24:27.139Z,5.40
2023-03-20T17:27:05.261Z,5.60
2023-03-20T17:29:39.009Z,6.20
2023-03-20T17:32:20.061Z,7.73
2023-03-20T17:34:50.879Z,5.53
2023-03-20T17:37:30.041Z,8.00
2023-03-20T17:40:04.400Z,6.67
2023-03-20T17:42:34.523Z,6.17
2023-03-20T17:45:10.691Z,6.47
2023-03-20T17:47:41.246Z,8.17
2023-03-20T17:50:17.783Z,7.33
2023-03-20T17:52:48.289Z,9.90
2023-03-20T17:55:27.703Z,6.63
2023-03-20T17:57:59.445Z,6.60
2023-03-20T18:00:33.644Z,9.47
2023-03-20T18:03:03.320Z,7.47
2023-03-20T18:05:34.974Z,7.20
2023-03-20T18:08:14.580Z,8.80
2023-03-20T18:10:58.429Z,6.70
2023-03-20T18:13:30.140Z,8.73
2023-03-20T18:16:20.770Z,10.40
2023-03-20T18:18:53.594Z,9.13
2023-03-20T18:21:24.578Z,7.27
2023-03-20T18:23:56.241Z,7.33
2023-03-20T18:26:31.667Z,8.17
2023-03-20T18:29:13.692Z,9.13
2023-03-20T18:31:54.450Z,9.43
2023-03-20T18:34:27.093Z,8.10
2023-03-20T18:36:58.795Z,8.60
2023-03-20T18:39:30.429Z,8.13
2023-03-20T18:42:13.896Z,8.87
2023-03-20T18:44:52.302Z,7.57
2023-03-20T18:47:49.833Z,7.50
2023-03-20T18:50:31.709Z,8.80
2023-03-20T18:53:09.684Z,9.10
2023-03-20T18:55:47.934Z,9.17
2023-03-20T18:58:23.978Z,11.80
2023-03-20T19:00:54.882Z,10.10
2023-03-20T19:03:31.989Z,12.47
2023-03-20T19:06:21.574Z,20.50
2023-03-20T19:08:57.365Z,15.50
2023-03-20T19:11:28.741Z,14.50
2023-03-20T19:14:02.063Z,11.23
2023-03-20T19:16:44.545Z,10.10
2023-03-20T19:19:32.883Z,19.03
2023-03-20T19:22:26.502Z,15.63
2023-03-20T19:25:04.642Z,13.03
2023-03-20T19:27:43.683Z,12.10
2023-03-20T19:30:28.638Z,11.17
2023-03-20T19:33:08.530Z,11.70
2023-03-20T19:36:04.196Z,10.97
2023-03-20T19:39:02.962Z,9.43
2023-03-20T19:41:45.616Z,10.40
2023-03-20T19:44:20.407Z,9.23
2023-03-20T19:46:57.423Z,10.93
2023-03-20T19:49:40.735Z,8.93
2023-03-20T19:52:36.068Z,9.90
2023-03-20T19:55:31.046Z,11.47
2023-03-20T19:58:14.599Z,10.20
2023-03-20T20:00:59.207Z,10.00
2023-03-20T20:03:32.673Z,8.90
2023-03-20T20:06:10.789Z,13.33
2023-03-20T20:08:56.448Z,10.03
2023-03-20T20:11:41.309Z,10.10
2023-03-20T20:14:14.949Z,9.47
2023-03-20T20:17:02.655Z,12.47
2023-03-20T20:19:40.749Z,9.33
2023-03-20T20:22:24.969Z,9.30
2023-03-20T20:25:08.395Z,11.87
2023-03-20T20:27:47.562Z,9.40
2023-03-20T20:30:25.412Z,8.50
2023-03-20T20:33:09.515Z,9.07
2023-03-20T20:36:36.490Z,8.50
2023-03-20T20:38:58.846Z,8.80
2023-03-20T20:41:53.849Z,8.80
2023-03-20T20:44:43.752Z,11.63
2023-03-20T20:47:15.954Z,8.77
2023-03-20T20:49:56.286Z,8.93
2023-03-20T20:52:33.927Z,8.47
2023-03-20T20:55:33.912Z,9.80
2023-03-20T20:58:10.126Z,8.43
2023-03-20T21:00:52.558Z,10.50
2023-03-20T21:03:31.058Z,8.27
2023-03-20T21:06:11.240Z,8.93
2023-03-20T21:08:47.185Z,8.90
2023-03-20T21:11:20.654Z,8.50
2023-03-20T21:14:04.518Z,7.60
2023-03-20T21:16:43.219Z,8.80
2023-03-20T21:19:27.938Z,9.57
2023-03-20T21:21:57.348Z,8.53
2023-03-20T21:24:33.939Z,7.83
2023-03-20T21:27:09.155Z,9.50
2023-03-20T21:29:45.520Z,8.43
2023-03-20T21:32:33.294Z,8.37
2023-03-20T21:35:20.542Z,8.77
2023-03-20T21:38:47.681Z,6.90
2023-03-20T21:40:47.290Z,7.40
2023-03-20T21:43:17.647Z,8.30
2023-03-20T21:49:41.214Z,7.60
2023-03-20T22:07:26.483Z,9.83
2023-03-20T22:15:46.650Z,6.80
2023-03-20T22:19:11.932Z,7.13
2023-03-20T22:24:45.169Z,7.40
2023-03-20T22:33:37.183Z,6.80
2023-03-20T22:36:25.601Z,8.00
2023-03-20T22:39:15.975Z,7.43
2023-03-20T22:44:53.683Z,7.10
2023-03-20T22:47:18.010Z,8.10
2023-03-20T22:49:48.968Z,7.97
2023-03-20T22:52:45.488Z,9.33
2023-03-20T22:55:19.547Z,7.43
2023-03-20T22:58:06.423Z,7.20
2023-03-20T23:00:45.158Z,7.20
2023-03-20T23:03:29.684Z,7.50
2023-03-20T23:06:13.771Z,10.03
2023-03-20T23:08:52.295Z,9.40
2023-03-20T23:11:27.214Z,9.07
2023-03-20T23:13:58.475Z,8.53
2023-03-20T23:16:30.637Z,8.50
2023-03-20T23:19:06.456Z,8.07
2023-03-20T23:21:39.846Z,8.77
2023-03-20T23:24:16.913Z,9.10
2023-03-20T23:26:47.833Z,9.40
2023-03-20T23:29:19.644Z,7.83
2023-03-20T23:31:48.950Z,9.10
2023-03-20T23:34:22.453Z,7.97
2023-03-20T23:36:53.032Z,8.87
2023-03-20T23:39:24.475Z,8.33
2023-03-20T23:42:20.379Z,10.40
2023-03-20T23:44:58.709Z,9.80
2023-03-20T23:47:43.898Z,11.13
2023-03-20T23:53:19.436Z,9.07
2023-03-20T23:55:58.546Z,9.47
2023-03-20T23:58:37.501Z,7.70
